createdAt,value
2022-12-22T00:02:38.618Z,72.29
2022-12-22T00:05:32.053Z,72.57
2022-12-22T00:08:17.316Z,72.99
2022-12-22T00:11:03.410Z,72.32
2022-12-22T00:13:48.523Z,72.76
2022-12-22T00:16:35.696Z,72.51
2022-12-22T00:19:21.323Z,72.85
2022-12-22T00:22:07.541Z,72.79
2022-12-22T00:24:52.700Z,72.64
2022-12-22T00:27:45.773Z,72.88
2022-12-22T00:30:32.994Z,72.95
2022-12-22T00:33:22.066Z,72.62
2022-12-22T00:36:08.210Z,72.39
2022-12-22T00:38:53.842Z,72.61
2022-12-22T00:41:40.014Z,72.36
2022-12-22T00:44:25.811Z,72.00
2022-12-22T00:47:11.173Z,72.32
2022-12-22T00:50:04.005Z,72.18
2022-12-22T00:52:50.035Z,72.51
2022-12-22T00:55:38.125Z,72.95
2022-12-22T00:58:29.751Z,72.53
2022-12-22T01:01:15.414Z,72.25
2022-12-22T01:04:00.780Z,72.33
2022-12-22T01:06:50.785Z,72.54
2022-12-22T01:09:36.430Z,72.55
2022-12-22T01:12:28.348Z,73.05
2022-12-22T01:15:13.661Z,72.59
2022-12-22T01:17:59.298Z,72.94
2022-12-22T01:20:44.938Z,72.65
2022-12-22T01:23:32.117Z,72.50
2022-12-22T01:26:17.212Z,72.77
2022-12-22T01:29:02.851Z,72.12
2022-12-22T01:31:50.515Z,72.28
2022-12-22T01:34:36.683Z,72.59
2022-12-22T01:37:21.771Z,72.18
2022-12-22T01:40:08.665Z,72.27
2022-12-22T01:42:53.840Z,72.04
2022-12-22T01:45:42.860Z,72.27
2022-12-22T01:48:30.887Z,72.32
2022-12-22T01:51:16.979Z,72.21
2022-12-22T01:54:02.268Z,72.05
2022-12-22T01:56:50.631Z,72.28
2022-12-22T01:59:35.929Z,72.19
2022-12-22T02:02:24.610Z,71.97
2022-12-22T02:05:11.181Z,72.19
2022-12-22T02:08:15.021Z,72.12
2022-12-22T02:11:18.889Z,72.16
2022-12-22T02:14:18.536Z,72.13
2022-12-22T02:17:13.700Z,72.56
2022-12-22T02:20:21.591Z,72.46
2022-12-22T02:23:19.847Z,72.35
2022-12-22T02:26:13.820Z,72.39
2022-12-22T02:29:01.918Z,72.39
2022-12-22T02:31:54.351Z,71.70
2022-12-22T02:34:39.476Z,72.36
2022-12-22T02:37:35.578Z,71.88
2022-12-22T02:40:23.339Z,72.34
2022-12-22T02:43:21.338Z,72.10
2022-12-22T02:46:16.402Z,71.58
2022-12-22T02:49:09.550Z,71.54
2022-12-22T02:52:02.960Z,71.79
2022-12-22T02:54:51.403Z,71.85
2022-12-22T02:57:37.478Z,71.74
2022-12-22T03:00:26.120Z,72.03
2022-12-22T03:03:13.006Z,71.14
2022-12-22T03:05:59.414Z,71.71
2022-12-22T03:08:44.473Z,71.60
2022-12-22T03:11:30.014Z,71.43
2022-12-22T03:14:16.241Z,71.51
2022-12-22T03:17:02.544Z,71.76
2022-12-22T03:19:49.859Z,71.41
2022-12-22T03:22:35.036Z,71.18
2022-12-22T03:25:20.711Z,71.06
2022-12-22T03:27:49.071Z,71.01
2022-12-22T03:30:17.404Z,71.43
2022-12-22T03:32:45.301Z,71.53
2022-12-22T03:35:15.500Z,71.41
2022-12-22T03:37:43.811Z,71.32
2022-12-22T03:40:13.284Z,71.33
2022-12-22T03:42:58.738Z,70.87
2022-12-22T03:45:44.271Z,71.02
2022-12-22T03:48:12.508Z,71.04
2022-12-22T03:50:42.236Z,70.98
2022-12-22T03:53:10.117Z,70.89
2022-12-22T03:55:38.312Z,71.76
2022-12-22T03:58:06.569Z,71.89
2022-12-22T04:00:34.520Z,71.88
2022-12-22T04:03:03.061Z,71.49
2022-12-22T04:05:31.370Z,72.21
2022-12-22T04:08:00.674Z,71.74
2022-12-22T04:10:46.591Z,71.98
2022-12-22T04:13:14.780Z,71.85
2022-12-22T04:15:42.808Z,71.50
2022-12-22T04:18:11.299Z,71.86
2022-12-22T04:20:39.177Z,72.20
2022-12-22T04:23:09.025Z,71.88
2022-12-22T04:25:37.329Z,71.31
2022-12-22T04:28:05.469Z,71.63
2022-12-22T04:30:33.890Z,71.66
2022-12-22T04:33:02.186Z,71.89
2022-12-22T04:35:29.938Z,71.83
2022-12-22T04:37:58.463Z,71.57
2022-12-22T04:40:28.203Z,72.00
2022-12-22T04:42:56.141Z,72.16
2022-12-22T04:45:24.518Z,71.90
2022-12-22T04:47:52.844Z,71.55
2022-12-22T04:50:20.693Z,71.93
2022-12-22T04:52:49.204Z,72.23
2022-12-22T04:55:17.246Z,71.84
2022-12-22T04:57:46.897Z,72.04
2022-12-22T05:00:16.207Z,71.89
2022-12-22T05:02:44.363Z,72.27
2022-12-22T05:05:12.839Z,72.21
2022-12-22T05:07:40.857Z,71.91
2022-12-22T05:10:10.320Z,72.04
2022-12-22T05:12:57.848Z,72.25
2022-12-22T05:15:32.797Z,72.09
2022-12-22T05:18:02.791Z,71.89
2022-12-22T05:20:31.553Z,71.95
2022-12-22T05:23:00.108Z,72.00
2022-12-22T05:25:34.404Z,71.86
2022-12-22T05:28:03.143Z,72.20
2022-12-22T05:30:32.755Z,71.74
2022-12-22T05:33:00.673Z,71.97
2022-12-22T05:35:28.709Z,72.09
2022-12-22T05:37:57.017Z,71.90
2022-12-22T05:40:25.323Z,71.90
2022-12-22T05:42:53.265Z,71.83
2022-12-22T05:45:22.416Z,71.73
2022-12-22T05:47:53.724Z,71.83
2022-12-22T05:50:25.144Z,72.14
2022-12-22T05:52:53.649Z,71.52
2022-12-22T05:55:21.927Z,71.87
2022-12-22T05:57:50.412Z,71.56
2022-12-22T06:00:19.528Z,72.20
2022-12-22T06:02:47.548Z,71.87
2022-12-22T06:05:17.399Z,71.89
2022-12-22T06:07:45.337Z,71.62
2022-12-22T06:10:14.731Z,71.92
2022-12-22T06:12:43.876Z,71.78
2022-12-22T06:15:15.597Z,71.29
2022-12-22T06:17:45.175Z,71.67
2022-12-22T06:20:15.648Z,71.33
2022-12-22T06:22:45.309Z,71.36
2022-12-22T06:25:18.123Z,71.59
2022-12-22T06:27:46.721Z,71.54
2022-12-22T06:30:15.690Z,71.46
2022-12-22T06:32:43.914Z,71.89
2022-12-22T06:35:12.630Z,71.93
2022-12-22T06:37:40.634Z,71.48
2022-12-22T06:40:11.309Z,72.05
2022-12-22T06:43:02.129Z,71.59
2022-12-22T06:45:34.149Z,71.31
2022-12-22T06:48:02.501Z,71.40
2022-12-22T06:50:30.558Z,71.83
2022-12-22T06:52:59.096Z,71.94
2022-12-22T06:55:28.891Z,71.67
2022-12-22T06:57:56.691Z,71.56
2022-12-22T07:00:26.928Z,71.30
2022-12-22T07:02:55.363Z,71.74
2022-12-22T07:05:24.756Z,71.67
2022-12-22T07:07:53.242Z,71.95
2022-12-22T07:10:41.602Z,71.64
2022-12-22T07:13:20.793Z,71.75
2022-12-22T07:15:55.669Z,71.55
2022-12-22T07:18:27.964Z,72.01
2022-12-22T07:20:56.246Z,71.97
2022-12-22T07:23:23.915Z,72.18
2022-12-22T07:25:52.026Z,71.93
2022-12-22T07:28:21.722Z,71.51
2022-12-22T07:30:49.548Z,71.31
2022-12-22T07:33:17.900Z,71.14
2022-12-22T07:35:46.598Z,71.58
2022-12-22T07:38:14.366Z,71.33
2022-12-22T07:40:43.527Z,70.70
2022-12-22T07:43:12.201Z,70.48
2022-12-22T07:45:41.230Z,71.04
2022-12-22T07:48:29.318Z,71.24
2022-12-22T07:51:02.409Z,70.61
2022-12-22T07:53:30.618Z,70.46
2022-12-22T07:55:58.849Z,70.64
2022-12-22T07:58:26.463Z,70.30
2022-12-22T08:01:00.431Z,70.07
2022-12-22T08:03:29.006Z,69.79
2022-12-22T08:05:56.770Z,70.00
2022-12-22T08:08:24.958Z,69.92
2022-12-22T08:10:55.445Z,70.08
2022-12-22T08:13:23.391Z,70.01
2022-12-22T08:15:51.711Z,69.40
2022-12-22T08:18:20.890Z,69.88
2022-12-22T08:20:51.923Z,70.07
2022-12-22T08:23:20.410Z,69.49
2022-12-22T08:25:53.591Z,69.86
2022-12-22T08:28:21.648Z,69.40
2022-12-22T08:30:49.671Z,69.03
2022-12-22T08:33:19.177Z,69.83
2022-12-22T08:35:48.304Z,69.38
2022-12-22T08:38:16.046Z,69.50
2022-12-22T08:40:46.654Z,69.79
2022-12-22T08:43:14.703Z,69.63
2022-12-22T08:45:43.849Z,69.52
2022-12-22T08:48:11.637Z,69.34
2022-12-22T08:50:39.868Z,69.57
2022-12-22T08:53:29.721Z,69.75
2022-12-22T08:55:58.550Z,69.84
2022-12-22T08:58:26.180Z,69.54
2022-12-22T09:00:54.002Z,69.81
2022-12-22T09:03:21.866Z,69.89
2022-12-22T09:05:49.801Z,69.65
2022-12-22T09:08:18.833Z,69.60
2022-12-22T09:10:46.454Z,69.36
2022-12-22T09:13:14.977Z,69.48
2022-12-22T09:15:42.593Z,69.28
2022-12-22T09:18:10.467Z,69.76
2022-12-22T09:20:38.293Z,69.28
2022-12-22T09:23:05.934Z,69.64
2022-12-22T09:25:35.843Z,69.25
2022-12-22T09:28:03.565Z,69.80
2022-12-22T09:30:31.549Z,69.16
2022-12-22T09:32:59.413Z,69.46
2022-12-22T09:35:27.313Z,68.78
2022-12-22T09:37:55.182Z,69.58
2022-12-22T09:40:24.627Z,69.55
2022-12-22T09:42:53.808Z,69.26
2022-12-22T09:45:21.523Z,69.55
2022-12-22T09:47:53.721Z,69.31
2022-12-22T09:50:24.510Z,69.60
2022-12-22T09:52:56.113Z,69.48
2022-12-22T09:55:38.328Z,69.31
2022-12-22T09:58:24.051Z,69.10
2022-12-22T10:01:02.895Z,68.98
2022-12-22T10:03:37.932Z,69.35
2022-12-22T10:06:12.306Z,68.22
2022-12-22T10:08:42.157Z,68.38
2022-12-22T10:11:14.696Z,68.04
2022-12-22T10:13:44.332Z,67.70
2022-12-22T10:16:21.213Z,67.01
2022-12-22T10:19:08.110Z,66.90
2022-12-22T10:21:46.357Z,67.07
2022-12-22T10:24:18.997Z,67.34
2022-12-22T10:26:47.085Z,67.58
2022-12-22T10:29:19.697Z,67.28
2022-12-22T10:31:59.885Z,67.14
2022-12-22T10:34:28.159Z,67.70
2022-12-22T10:37:00.259Z,67.73
2022-12-22T10:39:30.253Z,67.74
2022-12-22T10:42:02.808Z,67.42
2022-12-22T10:44:35.540Z,67.04
2022-12-22T10:47:17.317Z,67.65
2022-12-22T10:49:48.143Z,67.68
2022-12-22T10:52:21.248Z,67.42
2022-12-22T10:54:52.093Z,67.44
2022-12-22T10:57:29.969Z,66.57
2022-12-22T11:00:01.202Z,67.35
2022-12-22T11:02:33.030Z,67.27
2022-12-22T11:05:07.916Z,67.91
2022-12-22T11:07:37.522Z,68.16
2022-12-22T11:10:18.393Z,67.45
2022-12-22T11:13:00.304Z,67.80
2022-12-22T11:15:36.182Z,67.61
2022-12-22T11:18:12.387Z,67.57
2022-12-22T11:20:52.051Z,67.41
2022-12-22T11:23:26.868Z,67.85
2022-12-22T11:26:04.484Z,67.92
2022-12-22T11:28:56.023Z,68.26
2022-12-22T11:31:38.429Z,67.83
2022-12-22T11:34:21.062Z,68.08
2022-12-22T11:37:03.494Z,67.65
2022-12-22T11:39:41.475Z,67.56
2022-12-22T11:42:26.245Z,67.79
2022-12-22T11:45:06.512Z,67.81
2022-12-22T11:47:45.972Z,68.16
2022-12-22T11:51:02.724Z,68.06
2022-12-22T11:53:33.074Z,68.16
2022-12-22T11:56:13.855Z,67.53
2022-12-22T11:58:55.567Z,68.20
2022-12-22T12:01:41.223Z,67.81
2022-12-22T12:04:33.523Z,67.83
2022-12-22T12:07:26.215Z,67.82
2022-12-22T12:10:04.702Z,67.45
2022-12-22T12:12:42.429Z,67.72
2022-12-22T12:15:24.275Z,67.78
2022-12-22T12:18:08.634Z,67.01
2022-12-22T12:20:50.683Z,67.14
2022-12-22T12:23:37.496Z,67.05
2022-12-22T12:26:13.248Z,67.42
2022-12-22T12:28:54.804Z,67.32
2022-12-22T12:31:29.518Z,67.84
2022-12-22T12:34:01.078Z,67.85
2022-12-22T12:36:41.345Z,68.57
2022-12-22T12:39:17.348Z,67.00
2022-12-22T12:42:02.965Z,67.04
2022-12-22T12:44:35.502Z,67.29
2022-12-22T12:47:21.633Z,66.93
2022-12-22T12:49:57.758Z,67.14
2022-12-22T12:53:15.532Z,66.95
2022-12-22T12:56:10.253Z,66.98
2022-12-22T12:58:55.108Z,66.62
2022-12-22T13:01:59.933Z,66.51
2022-12-22T13:05:21.347Z,66.90
2022-12-22T13:08:14.374Z,66.83
2022-12-22T13:10:48.734Z,67.02
2022-12-22T13:13:48.877Z,67.67
2022-12-22T13:16:35.544Z,67.87
2022-12-22T13:19:16.724Z,67.67
2022-12-22T13:21:55.031Z,67.99
2022-12-22T13:24:28.915Z,68.11
2022-12-22T13:27:03.549Z,68.33
2022-12-22T13:29:44.772Z,68.51
2022-12-22T13:32:22.640Z,68.31
2022-12-22T13:37:49.984Z,68.60
2022-12-22T13:40:20.186Z,68.73
2022-12-22T13:42:50.464Z,69.10
2022-12-22T13:45:32.872Z,69.06
2022-12-22T13:48:02.779Z,68.96
2022-12-22T13:50:35.231Z,69.24
2022-12-22T13:53:07.609Z,69.43
2022-12-22T13:55:36.799Z,69.92
2022-12-22T13:58:09.770Z,69.74
2022-12-22T14:00:38.955Z,70.43
2022-12-22T14:03:27.682Z,70.48
2022-12-22T14:06:03.744Z,70.71
2022-12-22T14:08:32.043Z,70.15
2022-12-22T14:10:59.773Z,70.65
2022-12-22T14:13:35.110Z,70.82
2022-12-22T14:16:05.747Z,70.54
2022-12-22T14:18:34.457Z,71.06
2022-12-22T14:21:03.572Z,71.27
2022-12-22T14:23:35.679Z,71.59
2022-12-22T14:26:07.315Z,71.47
2022-12-22T14:28:43.158Z,71.77
2022-12-22T14:31:14.925Z,71.85
2022-12-22T14:33:52.733Z,71.13
2022-12-22T14:36:24.039Z,71.52
2022-12-22T14:38:53.956Z,71.53
2022-12-22T14:41:43.090Z,72.12
2022-12-22T14:44:16.207Z,71.89
2022-12-22T14:46:46.901Z,71.69
2022-12-22T14:49:17.691Z,71.70
2022-12-22T14:52:00.759Z,71.94
2022-12-22T14:54:29.400Z,72.43
2022-12-22T14:57:03.757Z,71.75
2022-12-22T14:59:32.348Z,71.77
2022-12-22T15:02:04.089Z,71.73
2022-12-22T15:04:32.860Z,71.97
2022-12-22T15:07:37.582Z,71.81
2022-12-22T15:10:18.415Z,72.05
2022-12-22T15:12:47.734Z,71.84
2022-12-22T15:15:17.468Z,72.32
2022-12-22T15:17:49.556Z,71.91
2022-12-22T15:20:21.831Z,72.04
2022-12-22T15:22:50.598Z,72.35
2022-12-22T15:25:20.876Z,72.04
2022-12-22T15:27:49.151Z,71.79
2022-12-22T15:30:27.766Z,72.01
2022-12-22T15:32:58.018Z,72.28
2022-12-22T15:35:31.400Z,71.67
2022-12-22T15:37:59.309Z,72.34
2022-12-22T15:40:28.680Z,71.84
2022-12-22T15:42:57.339Z,71.95
2022-12-22T15:45:25.230Z,71.93
2022-12-22T15:47:56.223Z,71.92
2022-12-22T15:50:32.156Z,71.51
2022-12-22T15:53:06.666Z,71.71
2022-12-22T15:55:36.140Z,71.60
2022-12-22T15:58:05.324Z,71.70
2022-12-22T16:00:33.255Z,71.87
2022-12-22T16:03:01.651Z,71.95
2022-12-22T16:05:30.980Z,72.39
2022-12-22T16:07:58.795Z,72.21
2022-12-22T16:10:29.840Z,72.74
2022-12-22T16:13:01.434Z,72.13
2022-12-22T16:15:31.164Z,72.07
2022-12-22T16:17:59.486Z,72.16
2022-12-22T16:20:33.031Z,72.38
2022-12-22T16:23:08.654Z,72.69
2022-12-22T16:25:39.870Z,72.41
2022-12-22T16:28:08.704Z,71.95
2022-12-22T16:30:36.534Z,72.14
2022-12-22T16:33:04.734Z,72.17
2022-12-22T16:35:33.049Z,72.05
2022-12-22T16:38:01.404Z,72.39
2022-12-22T16:40:33.898Z,72.31
2022-12-22T16:45:52.920Z,72.17
2022-12-22T16:48:33.537Z,72.31
2022-12-22T16:51:01.619Z,72.22
2022-12-22T16:53:29.393Z,72.44
2022-12-22T16:56:00.961Z,72.65
2022-12-22T16:58:28.880Z,72.49
2022-12-22T17:00:57.089Z,72.55
2022-12-22T17:03:28.379Z,71.96
2022-12-22T17:06:00.114Z,72.47
2022-12-22T17:08:32.268Z,72.02
2022-12-22T17:11:10.407Z,72.54
2022-12-22T17:13:39.891Z,72.29
2022-12-22T17:16:08.592Z,72.42
2022-12-22T17:18:37.364Z,72.00
2022-12-22T17:21:06.446Z,72.44
2022-12-22T17:23:39.059Z,72.06
2022-12-22T17:26:10.906Z,72.17
2022-12-22T17:28:40.110Z,71.84
2022-12-22T17:31:08.653Z,71.85
2022-12-22T17:33:36.368Z,71.88
2022-12-22T17:36:04.701Z,72.19
2022-12-22T17:38:32.648Z,72.03
2022-12-22T17:41:03.133Z,72.10
2022-12-22T17:43:32.520Z,72.22
2022-12-22T17:46:00.561Z,71.99
2022-12-22T17:48:28.804Z,72.45
2022-12-22T17:50:57.219Z,72.07
2022-12-22T17:53:25.053Z,71.94
2022-12-22T17:56:09.805Z,71.99
2022-12-22T17:58:39.177Z,71.94
2022-12-22T18:01:07.720Z,72.14
2022-12-22T18:03:35.705Z,72.31
2022-12-22T18:06:03.934Z,72.21
2022-12-22T18:08:32.584Z,71.95
2022-12-22T18:11:02.464Z,72.00
2022-12-22T18:13:30.662Z,71.92
2022-12-22T18:16:00.148Z,72.35
2022-12-22T18:18:28.608Z,72.29
2022-12-22T18:21:06.329Z,72.24
2022-12-22T18:23:37.076Z,72.16
2022-12-22T18:26:06.621Z,72.07
2022-12-22T18:28:34.377Z,72.48
2022-12-22T18:31:04.271Z,71.81
2022-12-22T18:33:32.315Z,72.20
2022-12-22T18:36:00.415Z,71.93
2022-12-22T18:38:30.962Z,72.37
2022-12-22T18:40:59.029Z,71.90
2022-12-22T18:43:26.974Z,72.22
2022-12-22T18:45:55.289Z,72.24
2022-12-22T18:48:24.978Z,71.96
2022-12-22T18:50:53.008Z,72.20
2022-12-22T18:53:28.566Z,71.68
2022-12-22T18:55:57.249Z,71.88
2022-12-22T18:58:25.899Z,72.46
2022-12-22T19:00:56.456Z,72.30
2022-12-22T19:03:29.290Z,72.51
2022-12-22T19:05:57.940Z,72.32
2022-12-22T19:08:27.391Z,72.17
2022-12-22T19:10:57.190Z,72.36
2022-12-22T19:13:29.898Z,72.29
2022-12-22T19:15:59.586Z,72.14
2022-12-22T19:18:29.478Z,72.58
2022-12-22T19:20:57.990Z,72.21
2022-12-22T19:23:26.670Z,72.50
2022-12-22T19:25:58.092Z,71.88
2022-12-22T19:28:29.646Z,72.22
2022-12-22T19:30:57.969Z,71.96
2022-12-22T19:33:35.114Z,72.42
2022-12-22T19:36:03.593Z,71.76
2022-12-22T19:38:32.666Z,71.69
2022-12-22T19:41:03.329Z,72.35
2022-12-22T19:43:32.003Z,71.49
2022-12-22T19:45:59.848Z,71.90
2022-12-22T19:48:30.651Z,71.99
2022-12-22T19:50:58.436Z,71.98
2022-12-22T19:53:26.896Z,71.95
2022-12-22T19:55:57.042Z,72.26
2022-12-22T19:58:29.042Z,71.97
2022-12-22T20:00:57.271Z,72.17
2022-12-22T20:03:26.917Z,72.08
2022-12-22T20:05:56.778Z,71.71
2022-12-22T20:08:24.675Z,71.92
2022-12-22T20:10:58.327Z,71.86
2022-12-22T20:13:28.640Z,71.39
2022-12-22T20:15:56.536Z,71.30
2022-12-22T20:18:27.541Z,71.75
2022-12-22T20:21:04.385Z,71.87
2022-12-22T20:23:36.021Z,71.81
2022-12-22T20:26:07.372Z,71.82
2022-12-22T20:28:37.496Z,71.78
2022-12-22T20:31:07.479Z,72.08
2022-12-22T20:33:35.961Z,71.45
2022-12-22T20:36:14.658Z,71.89
2022-12-22T20:38:43.680Z,72.04
2022-12-22T20:41:12.598Z,71.98
2022-12-22T20:43:41.763Z,72.21
2022-12-22T20:46:15.949Z,72.27
2022-12-22T20:48:45.847Z,72.20
2022-12-22T20:51:18.179Z,72.12
2022-12-22T20:53:47.695Z,72.16
2022-12-22T20:56:25.425Z,72.02
2022-12-22T20:58:53.261Z,72.39
2022-12-22T21:01:24.941Z,71.75
2022-12-22T21:03:53.241Z,72.09
2022-12-22T21:06:29.340Z,71.73
2022-12-22T21:08:59.462Z,71.90
2022-12-22T21:11:28.558Z,71.59
2022-12-22T21:13:58.277Z,71.86
2022-12-22T21:16:28.418Z,72.41
2022-12-22T21:18:56.871Z,71.82
2022-12-22T21:21:26.202Z,71.79
2022-12-22T21:23:54.046Z,72.05
2022-12-22T21:26:32.065Z,71.60
2022-12-22T21:29:00.887Z,71.72
2022-12-22T21:31:29.130Z,71.79
2022-12-22T21:33:57.039Z,71.81
2022-12-22T21:36:29.386Z,72.07
2022-12-22T21:39:00.338Z,71.92
2022-12-22T21:41:42.550Z,71.86
2022-12-22T21:44:12.434Z,71.70
2022-12-22T21:46:40.960Z,72.26
2022-12-22T21:49:16.413Z,72.52
2022-12-22T21:51:45.614Z,71.95
2022-12-22T21:54:13.427Z,71.86
2022-12-22T21:56:41.540Z,71.64
2022-12-22T21:59:09.309Z,72.07
2022-12-22T22:01:37.509Z,72.07
2022-12-22T22:04:05.933Z,72.37
2022-12-22T22:06:33.947Z,71.97
2022-12-22T22:09:05.105Z,72.27
2022-12-22T22:11:33.210Z,72.16
2022-12-22T22:14:01.214Z,71.98
2022-12-22T22:16:29.233Z,72.31
2022-12-22T22:18:57.396Z,72.52
2022-12-22T22:21:25.129Z,72.07
2022-12-22T22:23:54.835Z,72.35
2022-12-22T22:26:24.126Z,72.32
2022-12-22T22:28:54.697Z,72.17
2022-12-22T22:31:22.516Z,72.12
2022-12-22T22:33:51.012Z,72.43
2022-12-22T22:36:18.872Z,72.51
2022-12-22T22:38:47.298Z,72.43
2022-12-22T22:41:15.109Z,72.60
2022-12-22T22:43:44.746Z,72.39
2022-12-22T22:46:12.804Z,72.59
2022-12-22T22:48:42.893Z,72.86
2022-12-22T22:51:12.089Z,72.82
2022-12-22T22:53:43.041Z,72.82
2022-12-22T22:56:10.989Z,72.60
2022-12-22T22:58:39.332Z,72.27
2022-12-22T23:01:13.656Z,72.22
2022-12-22T23:03:42.166Z,72.27
2022-12-22T23:06:13.109Z,72.45
2022-12-22T23:08:41.071Z,72.34
2022-12-22T23:11:14.775Z,72.02
2022-12-22T23:13:43.258Z,72.14
2022-12-22T23:16:13.183Z,72.29
2022-12-22T23:18:41.245Z,72.56
2022-12-22T23:21:10.040Z,72.47
2022-12-22T23:23:38.475Z,72.24
2022-12-22T23:26:07.187Z,72.08
2022-12-22T23:28:35.679Z,72.07
2022-12-22T23:31:03.726Z,71.75
2022-12-22T23:33:33.706Z,72.09
2022-12-22T23:36:01.628Z,72.31
2022-12-22T23:38:30.142Z,72.22
2022-12-22T23:41:04.037Z,71.45
2022-12-22T23:43:32.908Z,71.62
2022-12-22T23:46:00.937Z,71.57
2022-12-22T23:48:29.323Z,71.36
2022-12-22T23:50:58.651Z,71.57
2022-12-22T23:53:27.095Z,71.95
2022-12-22T23:55:54.989Z,71.25
2022-12-22T23:58:23.668Z,71.63
